Terminal Aerodrome Forecast
Issued by NWS

Home | Current Version | Previous Version | Text Only | Print | Product List | Glossary On
Versions: 1 2 3 4 5 6 7 8 9 10 11 12 13 14 15 16 17 18 19 20 21 22 23 24 25 26 27 28 29 30 31 32 33
000
FTUS41 KRNK 011150 CCA
TAFBCB
TAF COR
KBCB 011150Z 0112/0212 00000KT P6SM -SNPL SCT010 OVC015
     FM011400 00000KT 4SM -FZRAPL BR OVC015
     FM011900 19003KT 3/4SM -RA BR OVC004
     FM012300 25003KT 1/2SM FG OVC007
     FM020600 27005KT 5SM BR OVC004
     FM020900 28006KT 6SM -RA BR OVC002=

USA.gov is the U.S. government's official web portal to all federal, state and local government web resources and services.